Time;durP1;ratioP1;P1;durP2;ratioP2;P2;SDS_P1;SDS_P2;PMS_P1;PMS_P2;Temp;Humidity;BMP_temperature;BMP_pressure;BME280_temperature;BME280_humidity;BME280_pressure;Samples;Min_cycle;Max_cycle;Signal;HPM_P1;HPM_P2
2022/11/13 00:00:15;;;;;;;62.15;35.65;;;;;;;7.65;100.00;101169.98;1770713;79;21189;-76
2022/11/13 00:03:39;;;;;;;62.78;35.08;;;;;;;7.59;100.00;101169.18;1771538;79;21166;-77
2022/11/13 00:07:02;;;;;;;56.35;33.73;;;;;;;7.69;100.00;101170.94;1772060;81;21698;-77
2022/11/13 00:10:20;;;;;;;66.45;35.35;;;;;;;7.93;100.00;101168.38;1770580;79;21201;-77
2022/11/13 00:13:44;;;;;;;60.40;33.98;;;;;;;7.75;100.00;101165.44;1773824;80;21753;-77
2022/11/13 00:17:08;;;;;;;59.08;33.23;;;;;;;7.85;100.00;101158.66;1781663;80;21192;-78
2022/11/13 00:20:32;;;;;;;54.15;30.43;;;;;;;7.92;99.90;101151.17;1783364;80;21242;-84
2022/11/13 00:23:56;;;;;;;53.25;30.17;;;;;;;8.21;99.24;101147.66;1783928;80;21183;-77
2022/11/13 00:27:20;;;;;;;52.55;28.17;;;;;;;8.36;97.56;101152.19;1784665;80;21199;-81
2022/11/13 00:30:43;;;;;;;58.38;31.27;;;;;;;8.38;97.68;101146.15;1783870;80;21242;-78
2022/11/13 00:34:07;;;;;;;47.48;28.95;;;;;;;7.94;98.19;101142.34;1783968;80;21177;-77
2022/11/13 00:37:34;;;;;;;52.25;30.23;;;;;;;7.71;100.00;101135.39;1784790;80;21236;-76
2022/11/13 00:40:58;;;;;;;45.40;26.17;;;;;;;7.75;100.00;101123.73;1784592;80;21155;-76
2022/11/13 00:44:22;;;;;;;42.73;26.82;;;;;;;7.52;100.00;101133.95;1784373;80;21173;-76
2022/11/13 00:47:39;;;;;;;39.88;24.27;;;;;;;7.74;100.00;101126.09;1783102;80;21736;-77
2022/11/13 00:50:49;;;;;;;44.55;27.87;;;;;;;7.79;100.00;101130.12;1744447;82;21785;-77
2022/11/13 00:54:13;;;;;;;49.30;27.73;;;;;;;7.84;100.00;101125.13;1745662;82;21248;-77
2022/11/13 00:57:36;;;;;;;48.33;26.95;;;;;;;7.64;100.00;101116.53;1727448;83;21271;-77
2022/11/13 01:01:00;;;;;;;48.40;27.58;;;;;;;7.83;100.00;101119.32;1746198;82;21201;-77
2022/11/13 01:04:27;;;;;;;43.20;25.23;;;;;;;7.77;100.00;101118.52;1711614;82;21209;-77
2022/11/13 01:07:51;;;;;;;40.03;22.90;;;;;;;7.82;100.00;101117.60;1711826;84;21571;-77
2022/11/13 01:11:19;;;;;;;39.73;23.57;;;;;;;7.73;100.00;101103.95;1710390;84;21644;-78
2022/11/13 01:14:42;;;;;;;42.53;24.55;;;;;;;7.79;100.00;101112.42;1709760;82;21205;-77
2022/11/13 01:18:05;;;;;;;40.55;23.30;;;;;;;7.89;100.00;101105.64;1713864;83;21748;-76
2022/11/13 01:21:32;;;;;;;48.90;26.00;;;;;;;7.90;100.00;101104.63;1716953;83;21152;-77
2022/11/13 01:24:56;;;;;;;39.38;24.55;;;;;;;7.87;100.00;101097.61;1717045;83;21745;-77
2022/11/13 01:28:20;;;;;;;44.93;25.12;;;;;;;7.98;99.87;101098.49;1716916;83;21760;-76
2022/11/13 01:31:45;;;;;;;35.68;22.05;;;;;;;8.15;99.05;101091.00;1710171;83;21249;-77
2022/11/13 01:35:08;;;;;;;34.80;21.73;;;;;;;8.17;98.32;101084.89;1689208;85;21233;-76
2022/11/13 01:38:31;;;;;;;42.40;26.00;;;;;;;8.14;98.68;101083.84;1687910;84;21261;-77
2022/11/13 01:41:56;;;;;;;40.40;24.25;;;;;;;8.18;98.10;101082.52;1689324;85;21177;-76
2022/11/13 01:46:07;;;;;;;36.33;22.40;;;;;;;8.26;97.93;101077.73;1688024;85;21197;-76
2022/11/13 01:49:43;;;;;;;37.33;22.05;;;;;;;7.97;98.43;101079.92;1691343;85;21243;-77
2022/11/13 01:53:07;;;;;;;40.28;24.10;;;;;;;7.92;99.48;101083.07;1691997;85;21168;-77
2022/11/13 01:56:30;;;;;;;53.10;25.97;;;;;;;8.01;99.39;101077.79;1691796;85;21202;-75
2022/11/13 01:59:58;;;;;;;45.78;24.70;;;;;;;7.84;99.86;101076.09;1690659;84;21781;-76
2022/11/13 02:03:22;;;;;;;46.08;24.02;;;;;;;7.82;100.00;101071.80;1713407;83;21180;-76
2022/11/13 02:07:04;;;;;;;41.45;24.65;;;;;;;7.90;100.00;101081.00;1715277;83;21815;-76
2022/11/13 02:10:28;;;;;;;32.40;19.98;;;;;;;8.04;99.53;101081.06;1715603;83;21244;-77
2022/11/13 02:13:52;;;;;;;41.18;23.40;;;;;;;8.08;99.28;101076.20;1716671;83;21212;-77
2022/11/13 02:17:24;;;;;;;37.45;23.38;;;;;;;7.98;99.38;101081.64;1718825;82;21190;-77
2022/11/13 02:21:28;;;;;;;40.15;23.12;;;;;;;7.77;100.00;101091.29;1707217;84;21166;-77
2022/11/13 02:24:52;;;;;;;35.33;20.82;;;;;;;7.76;100.00;101088.17;1691554;84;21208;-76
2022/11/13 02:28:17;;;;;;;39.00;23.57;;;;;;;7.80;100.00;101081.95;1694692;84;21199;-77
2022/11/13 02:31:40;;;;;;;42.95;24.23;;;;;;;8.07;100.00;101090.84;1723667;83;21209;-77
2022/11/13 02:35:04;;;;;;;41.55;22.85;;;;;;;7.83;100.00;101081.19;1722866;83;21239;-77
2022/11/13 02:38:27;;;;;;;46.10;23.57;;;;;;;8.04;100.00;101081.57;1722284;83;21161;-77
2022/11/13 02:41:50;;;;;;;40.28;24.12;;;;;;;7.93;100.00;101088.88;1723793;83;21174;-77
2022/11/13 02:45:16;;;;;;;35.80;21.80;;;;;;;8.14;100.00;101084.69;1722555;83;21269;-77
2022/11/13 02:48:38;;;;;;;41.45;23.80;;;;;;;8.22;99.17;101079.88;1723696;83;21170;-76
2022/11/13 02:52:02;;;;;;;39.70;24.12;;;;;;;8.23;99.06;101073.41;1723911;83;21158;-77
2022/11/13 02:55:27;;;;;;;36.13;21.97;;;;;;;8.22;99.37;101083.96;1722478;83;21185;-77
2022/11/13 02:58:51;;;;;;;36.20;19.87;;;;;;;7.94;100.00;101075.61;1722349;83;21249;-76
2022/11/13 03:02:15;;;;;;;39.13;23.07;;;;;;;8.06;100.00;101076.36;1722586;83;21226;-76
2022/11/13 03:05:40;;;;;;;32.38;19.92;;;;;;;8.04;100.00;101072.03;1722418;83;21241;-77
2022/11/13 03:09:04;;;;;;;32.17;20.05;;;;;;;8.02;100.00;101070.83;1723587;83;21218;-76
2022/11/13 03:12:27;;;;;;;34.70;21.48;;;;;;;7.98;100.00;101075.34;1724027;83;21682;-77
2022/11/13 03:15:52;;;;;;;37.17;22.52;;;;;;;8.09;100.00;101076.55;1723075;83;21209;-77
2022/11/13 03:19:15;;;;;;;40.38;22.30;;;;;;;8.20;100.00;101067.77;1735956;82;21208;-77
2022/11/13 03:22:39;;;;;;;41.45;21.62;;;;;;;8.18;100.00;101064.30;1736473;82;21209;-76
2022/11/13 03:26:03;;;;;;;38.17;20.60;;;;;;;8.29;100.00;101061.96;1735806;82;22038;-77
2022/11/13 03:29:27;;;;;;;34.05;20.25;;;;;;;8.41;99.79;101055.88;1735949;82;21248;-77
2022/11/13 03:32:51;;;;;;;41.88;22.67;;;;;;;8.43;99.78;101058.83;1735071;82;21146;-78
2022/11/13 03:36:15;;;;;;;37.70;22.62;;;;;;;8.35;100.00;101061.38;1735704;82;21244;-77
2022/11/13 03:39:31;;;;;;;32.25;20.00;;;;;;;8.56;99.98;101054.93;1735933;82;21193;-77
2022/11/13 03:42:43;;;;;;;25.25;15.50;;;;;;;8.82;98.27;101054.69;1736582;82;21624;-77
2022/11/13 03:46:06;;;;;;;34.60;20.15;;;;;;;8.85;97.76;101051.67;1735982;82;21220;-77
2022/11/13 03:49:31;;;;;;;37.93;22.20;;;;;;;8.85;97.79;101044.85;1735966;82;21716;-77
2022/11/13 03:52:55;;;;;;;38.02;22.48;;;;;;;8.81;97.97;101043.42;1735235;82;21750;-76
2022/11/13 03:56:19;;;;;;;36.80;20.72;;;;;;;8.90;97.91;101043.91;1735769;82;21675;-77
2022/11/13 03:59:42;;;;;;;34.38;21.05;;;;;;;8.91;97.75;101051.58;1735988;82;21751;-77
2022/11/13 04:03:07;;;;;;;37.75;23.38;;;;;;;9.10;96.72;101051.52;1735295;82;21237;-78
2022/11/13 04:06:30;;;;;;;36.13;21.52;;;;;;;9.07;97.00;101045.49;1735751;82;21228;-77
2022/11/13 04:09:54;;;;;;;33.63;21.87;;;;;;;9.24;96.08;101034.31;1735640;82;21216;-76
2022/11/13 04:13:18;;;;;;;28.57;18.15;;;;;;;9.25;96.01;101035.52;1736460;82;21157;-77
2022/11/13 04:16:42;;;;;;;35.83;21.52;;;;;;;9.20;95.29;101037.84;1735666;82;21771;-77
2022/11/13 04:20:06;;;;;;;43.10;23.47;;;;;;;9.17;95.34;101036.28;1688453;85;21224;-77
2022/11/13 04:23:30;;;;;;;37.55;23.00;;;;;;;8.82;97.44;101032.86;1689261;85;21184;-76
2022/11/13 04:26:53;;;;;;;35.98;19.65;;;;;;;9.05;97.28;101042.06;1688755;85;22134;-78
2022/11/13 04:30:11;;;;;;;38.55;23.05;;;;;;;9.22;96.46;101042.62;1688389;85;21228;-76
2022/11/13 04:33:34;;;;;;;37.88;21.62;;;;;;;9.19;96.29;101039.70;1688283;85;21204;-77
2022/11/13 04:36:58;;;;;;;42.30;23.12;;;;;;;9.34;95.82;101039.22;1688545;85;21188;-77
2022/11/13 04:40:22;;;;;;;36.00;21.25;;;;;;;9.42;95.14;101030.63;1688234;85;21208;-76
2022/11/13 04:43:46;;;;;;;33.42;21.65;;;;;;;9.54;94.76;101037.24;1689321;85;21809;-77
2022/11/13 04:47:11;;;;;;;38.40;23.77;;;;;;;9.61;94.70;101046.56;1688508;85;21184;-77
2022/11/13 04:50:35;;;;;;;34.18;22.22;;;;;;;9.53;94.66;101047.82;1688184;85;21244;-76
2022/11/13 04:53:58;;;;;;;38.67;21.70;;;;;;;9.54;94.74;101045.44;1689128;85;21224;-77
2022/11/13 04:57:22;;;;;;;39.42;22.60;;;;;;;9.56;94.81;101042.92;1688471;85;21745;-76
2022/11/13 05:00:47;;;;;;;36.15;20.25;;;;;;;9.45;94.90;101043.10;1688345;85;21224;-77
2022/11/13 05:04:09;;;;;;;33.13;20.20;;;;;;;9.33;96.02;101041.09;1688177;85;21196;-76
2022/11/13 05:07:33;;;;;;;31.25;19.25;;;;;;;9.57;95.27;101036.95;1688538;85;21189;-76
2022/11/13 05:10:57;;;;;;;30.70;19.92;;;;;;;9.25;96.40;101036.87;1689383;85;22177;-76
2022/11/13 05:14:13;;;;;;;32.65;19.80;;;;;;;9.22;97.05;101034.44;1688935;85;21220;-78
2022/11/13 05:17:23;;;;;;;31.50;19.92;;;;;;;9.29;97.19;101042.40;1689446;85;21181;-77
2022/11/13 05:20:41;;;;;;;29.85;18.98;;;;;;;9.29;97.24;101037.45;1690042;83;21299;-77
2022/11/13 05:24:04;;;;;;;29.42;19.52;;;;;;;9.35;97.08;101040.93;1663531;86;21224;-76
2022/11/13 05:27:28;;;;;;;33.05;20.32;;;;;;;9.26;97.30;101054.11;1663785;86;21189;-77
2022/11/13 05:30:53;;;;;;;28.98;20.17;;;;;;;9.48;96.74;101045.03;1664125;86;21209;-77
2022/11/13 05:34:10;;;;;;;36.15;19.57;;;;;;;9.60;96.15;101048.44;1663885;86;21208;-77
2022/11/13 05:37:20;;;;;;;32.60;20.17;;;;;;;9.71;95.66;101050.09;1689075;83;21237;-77
2022/11/13 05:40:24;;;;;;;27.27;17.48;;;;;;;9.97;94.86;101057.03;1690903;85;21882;-77
2022/11/13 05:43:34;;;;;;;27.85;18.05;;;;;;;9.91;93.98;101059.88;1692463;85;21218;-77
2022/11/13 05:46:39;;;;;;;29.92;20.72;;;;;;;9.90;94.45;101051.84;1692211;85;21229;-77
2022/11/13 05:49:50;;;;;;;30.68;20.72;;;;;;;9.88;94.50;101053.38;1690862;85;21199;-76
2022/11/13 05:52:54;;;;;;;29.92;18.23;;;;;;;9.79;95.40;101055.66;1664469;86;21718;-76
2022/11/13 05:56:16;;;;;;;;;;;;;;;10.11;93.99;101059.23;1667498;86;21191;-77
2022/11/13 05:59:40;;;;;;;27.77;17.85;;;;;;;10.16;93.42;101054.66;1664992;85;20226;-76
2022/11/13 06:03:02;;;;;;;24.12;17.02;;;;;;;10.09;93.60;101058.54;1665676;86;21182;-77
2022/11/13 06:06:26;;;;;;;32.17;19.87;;;;;;;10.30;93.02;101065.60;1665582;86;21786;-76
2022/11/13 06:09:49;;;;;;;32.03;19.92;;;;;;;10.49;92.40;101059.48;1665055;85;21253;-77
2022/11/13 06:13:13;;;;;;;33.67;18.75;;;;;;;10.48;92.07;101059.11;1665840;86;21194;-77
2022/11/13 06:16:43;;;;;;;28.00;17.85;;;;;;;9.22;95.44;101053.55;1665510;86;21167;-76
2022/11/13 06:20:07;;;;;;;25.75;17.50;;;;;;;10.16;96.97;101051.94;1684426;84;21200;-77
2022/11/13 06:23:31;;;;;;;33.18;20.10;;;;;;;9.07;97.95;101050.44;1705753;83;21185;-75
2022/11/13 06:26:54;;;;;;;26.50;16.50;;;;;;;9.68;97.76;101055.85;1705968;84;21233;-77
2022/11/13 06:30:18;;;;;;;32.25;19.23;;;;;;;9.77;97.53;101046.73;1704722;83;21738;-77
2022/11/13 06:33:42;;;;;;;31.40;19.10;;;;;;;10.10;96.05;101040.27;1705716;83;21193;-77
2022/11/13 06:37:06;;;;;;;27.00;16.93;;;;;;;10.39;94.03;101038.69;1705933;84;21184;-77
2022/11/13 06:40:30;;;;;;;31.50;18.00;;;;;;;10.20;94.91;101039.67;1704536;83;21865;-76
2022/11/13 06:43:53;;;;;;;28.40;18.40;;;;;;;10.15;95.42;101037.92;1705712;83;21798;-77
2022/11/13 06:47:13;;;;;;;31.40;18.75;;;;;;;10.12;95.37;101032.27;1705908;84;21201;-76
2022/11/13 06:50:23;;;;;;;23.52;16.50;;;;;;;10.12;96.04;101040.98;1705547;83;21730;-77
2022/11/13 06:53:47;;;;;;;26.97;16.67;;;;;;;10.46;94.87;101036.54;1705920;83;21214;-78
2022/11/13 06:57:11;;;;;;;28.60;17.70;;;;;;;10.48;94.15;101038.59;1705921;84;21178;-76
2022/11/13 07:00:35;;;;;;;26.00;17.25;;;;;;;10.52;93.81;101032.30;1704718;83;21241;-76
2022/11/13 07:03:59;;;;;;;24.80;16.42;;;;;;;10.52;93.97;101026.84;1705613;83;21658;-76
2022/11/13 07:07:22;;;;;;;25.57;16.70;;;;;;;10.46;94.50;101032.95;1705908;84;21182;-76
2022/11/13 07:10:46;;;;;;;22.93;16.07;;;;;;;10.63;93.86;101038.03;1704814;84;21177;-78
2022/11/13 07:14:11;;;;;;;29.65;18.10;;;;;;;10.49;94.15;101034.87;1705643;83;21217;-78
2022/11/13 07:17:36;;;;;;;27.22;17.50;;;;;;;10.61;93.84;101033.23;1706005;84;22294;-78
2022/11/13 07:21:00;;;;;;;26.05;16.57;;;;;;;10.66;94.10;101026.77;1704797;84;21236;-76
2022/11/13 07:24:23;;;;;;;29.18;17.15;;;;;;;10.71;94.44;101026.64;1705562;83;21730;-76
2022/11/13 07:27:52;;;;;;;24.07;16.97;;;;;;;10.93;93.60;101019.79;1704862;84;21169;-77
2022/11/13 07:31:16;;;;;;;22.75;15.25;;;;;;;11.41;91.56;101022.44;1706432;84;21233;-84
2022/11/13 07:34:33;;;;;;;23.60;16.57;;;;;;;11.21;91.05;101019.09;1705710;83;21181;-84
2022/11/13 07:37:51;;;;;;;22.10;15.83;;;;;;;11.24;92.12;101022.00;1706180;84;21206;-77
2022/11/13 07:41:14;;;;;;;20.15;14.25;;;;;;;11.59;91.20;101026.97;1706434;84;21221;-77
2022/11/13 07:44:38;;;;;;;20.50;14.35;;;;;;;11.38;91.87;101021.38;1705879;83;21264;-84
2022/11/13 07:48:08;;;;;;;19.98;14.30;;;;;;;11.50;91.43;101012.38;1704968;84;21244;-84
2022/11/13 07:51:31;;;;;;;16.55;13.05;;;;;;;11.67;91.23;101014.67;1705168;84;21753;-77
2022/11/13 07:54:55;;;;;;;17.35;12.40;;;;;;;11.70;90.97;101014.32;1705607;83;21201;-84
2022/11/13 07:58:19;;;;;;;13.22;10.78;;;;;;;11.83;90.31;101009.26;1706058;84;21794;-84
2022/11/13 08:01:44;;;;;;;15.90;11.05;;;;;;;11.89;89.89;101015.95;1706380;84;21190;-84
2022/11/13 08:05:06;;;;;;;15.00;10.35;;;;;;;12.02;89.04;101017.69;1705618;83;21182;-84
2022/11/13 08:08:29;;;;;;;9.65;8.63;;;;;;;12.03;88.86;101016.14;1706071;79;21228;-84
2022/11/13 08:11:53;;;;;;;13.95;9.28;;;;;;;12.02;88.53;101019.92;1706393;84;21173;-83
2022/11/13 08:15:17;;;;;;;10.85;8.83;;;;;;;11.95;88.38;101018.01;1705312;83;21738;-84
2022/11/13 08:18:41;;;;;;;12.00;9.75;;;;;;;12.05;88.43;101020.11;1705967;83;21200;-84
2022/11/13 08:22:05;;;;;;;15.48;9.90;;;;;;;12.12;88.09;101014.80;1704809;84;21655;-83
2022/11/13 08:25:31;;;;;;;15.23;10.98;;;;;;;12.21;87.74;101021.48;1705103;83;21197;-84
2022/11/13 08:28:56;;;;;;;14.93;10.70;;;;;;;12.09;87.89;101019.23;1704924;83;21252;-84
2022/11/13 08:32:25;;;;;;;16.80;10.48;;;;;;;12.18;87.93;101014.11;1706969;84;21189;-83
2022/11/13 08:35:48;;;;;;;16.10;10.65;;;;;;;12.17;88.06;101016.00;1705666;84;21739;-78
2022/11/13 08:39:11;;;;;;;13.88;9.88;;;;;;;12.11;88.21;101022.17;1705085;83;21213;-77
2022/11/13 08:42:35;;;;;;;13.08;9.33;;;;;;;12.05;87.84;101012.40;1705994;84;21249;-76
2022/11/13 08:45:54;;;;;;;10.45;7.95;;;;;;;12.24;87.33;101003.33;1706156;84;21178;-76
2022/11/13 08:49:17;;;;;;;14.78;8.55;;;;;;;12.14;87.21;101015.47;1708626;82;21221;-78
2022/11/13 08:52:40;;;;;;;9.08;7.08;;;;;;;12.17;87.21;101004.17;1711724;82;21181;-77
2022/11/13 08:56:04;;;;;;;7.47;6.00;;;;;;;12.33;86.25;101006.94;1723836;83;21170;-77
2022/11/13 08:59:28;;;;;;;5.60;5.00;;;;;;;12.36;85.79;100994.23;1723041;83;21211;-77
2022/11/13 09:02:52;;;;;;;5.08;4.30;;;;;;;12.41;84.87;100994.58;1742830;82;21486;-78
2022/11/13 09:06:16;;;;;;;5.47;3.70;;;;;;;12.41;84.21;100990.46;1707611;83;21221;-77
2022/11/13 09:09:40;;;;;;;6.05;4.00;;;;;;;12.49;83.06;100982.23;1711790;82;21241;-77
2022/11/13 09:13:08;;;;;;;6.17;3.90;;;;;;;12.29;83.67;100989.11;1684997;85;21172;-77
2022/11/13 09:16:33;;;;;;;4.95;3.83;;;;;;;12.26;83.42;100988.06;1697964;84;21431;-77
2022/11/13 09:19:56;;;;;;;4.20;3.67;;;;;;;11.39;83.83;100997.62;1696857;83;21177;-77
2022/11/13 09:23:21;;;;;;;6.50;4.03;;;;;;;11.51;86.64;100983.44;1693467;83;21214;-76
2022/11/13 09:26:45;;;;;;;7.35;4.25;;;;;;;11.49;84.83;100973.16;1741561;82;21745;-78
2022/11/13 09:30:09;;;;;;;6.03;4.30;;;;;;;11.65;84.76;100979.20;1740801;81;21224;-78
2022/11/13 09:33:33;;;;;;;5.42;3.85;;;;;;;11.82;84.20;100970.55;1741555;81;21228;-77
2022/11/13 09:36:57;;;;;;;4.50;3.80;;;;;;;11.77;84.81;100977.87;1741312;82;21181;-78
2022/11/13 09:40:25;;;;;;;4.78;4.28;;;;;;;11.99;83.61;100976.37;1740072;81;21335;-76
2022/11/13 09:44:02;;;;;;;15.23;4.45;;;;;;;12.06;83.46;100979.83;1741428;81;21240;-77
2022/11/13 09:47:50;;;;;;;3.12;2.85;;;;;;;12.21;83.00;100965.78;1741642;82;21161;-77
2022/11/13 09:51:21;;;;;;;3.77;3.27;;;;;;;12.30;81.17;100959.27;1740354;82;21221;-77
2022/11/13 09:54:45;;;;;;;4.25;3.30;;;;;;;11.91;81.29;100957.72;1741036;81;21221;-78
2022/11/13 09:58:22;;;;;;;3.55;3.12;;;;;;;12.34;80.04;100962.02;1741606;82;21142;-77
2022/11/13 10:02:26;;;;;;;2.87;2.42;;;;;;;12.39;78.51;100951.38;1741534;82;21722;-77
2022/11/13 10:06:15;;;;;;;3.83;3.00;;;;;;;12.42;78.61;100961.13;1741562;82;21753;-77
2022/11/13 10:09:44;;;;;;;4.08;3.20;;;;;;;12.31;79.30;100958.75;1741036;81;21204;-77
2022/11/13 10:13:03;;;;;;;4.08;2.90;;;;;;;12.51;78.73;100952.75;1740134;82;21757;-77
2022/11/13 10:16:48;;;;;;;3.27;2.98;;;;;;;12.63;77.02;100945.52;1741534;82;21185;-76
2022/11/13 10:20:22;;;;;;;6.42;3.30;;;;;;;12.93;76.67;100956.25;1740244;81;21201;-77
2022/11/13 10:23:46;;;;;;;3.65;2.80;;;;;;;12.85;76.50;100958.52;1741149;80;21180;-77
2022/11/13 10:27:12;;;;;;;2.95;2.65;;;;;;;12.86;75.71;100956.63;1754904;82;21177;-78
2022/11/13 10:30:36;;;;;;;4.87;3.30;;;;;;;12.96;73.35;100954.02;1753427;80;21164;-77
2022/11/13 10:34:00;;;;;;;3.65;3.22;;;;;;;13.12;72.97;100951.72;1754553;80;21263;-76
2022/11/13 10:37:53;;;;;;;3.83;3.30;;;;;;;13.07;73.17;100958.78;1754617;82;21204;-77
2022/11/13 10:41:21;;;;;;;8.25;2.87;;;;;;;13.02;72.28;100956.56;1753687;82;21193;-77
2022/11/13 10:44:45;;;;;;;3.52;3.00;;;;;;;13.16;72.51;100937.12;1754275;80;21196;-77
2022/11/13 10:48:08;;;;;;;8.55;3.25;;;;;;;13.08;72.04;100944.01;1753155;82;21204;-78
2022/11/13 10:51:38;;;;;;;4.85;3.40;;;;;;;13.16;72.78;100945.36;1753621;82;21157;-77
2022/11/13 10:55:38;;;;;;;4.00;3.30;;;;;;;13.40;71.27;100937.03;1753879;80;21752;-77
2022/11/13 10:59:22;;;;;;;4.30;3.55;;;;;;;13.66;70.16;100939.48;1753385;80;21228;-77
2022/11/13 11:02:45;;;;;;;6.70;3.05;;;;;;;13.52;69.46;100937.50;1755001;82;21152;-78
2022/11/13 11:06:11;;;;;;;3.75;3.35;;;;;;;13.18;70.33;100940.56;1744552;82;21276;-77
2022/11/13 11:09:38;;;;;;;4.25;3.47;;;;;;;13.46;70.65;100929.47;1753405;80;21196;-77
2022/11/13 11:13:05;;;;;;;3.50;3.20;;;;;;;13.30;70.73;100920.77;1754929;82;21717;-77
2022/11/13 11:16:30;;;;;;;3.45;3.15;;;;;;;13.61;70.08;100916.33;1754828;82;21169;-78
2022/11/13 11:20:02;;;;;;;3.50;3.20;;;;;;;13.70;69.55;100906.47;1753823;80;21373;-77
2022/11/13 11:24:00;;;;;;;4.10;3.50;;;;;;;13.61;70.02;100919.08;1754198;80;21754;-77
2022/11/13 11:27:39;;;;;;;7.37;3.60;;;;;;;13.40;70.43;100912.30;1741546;82;21210;-78
2022/11/13 11:31:25;;;;;;;3.72;3.33;;;;;;;13.34;70.28;100893.80;1741062;82;21153;-78
2022/11/13 11:35:10;;;;;;;4.28;3.67;;;;;;;13.27;69.86;100905.19;1740853;81;21232;-78
2022/11/13 11:38:46;;;;;;;6.00;3.92;;;;;;;13.20;70.04;100904.14;1741092;81;21228;-77
2022/11/13 11:42:24;;;;;;;4.75;3.83;;;;;;;13.03;71.14;100890.50;1740520;82;21185;-77
2022/11/13 11:45:37;;;;;;;4.80;3.60;;;;;;;13.22;71.29;100892.48;1740341;81;21208;-77
2022/11/13 11:48:47;;;;;;;4.30;3.90;;;;;;;13.05;71.42;100888.94;1740501;81;21177;-77
2022/11/13 11:52:26;;;;;;;4.55;3.83;;;;;;;12.88;71.69;100881.27;1740550;82;21181;-77
2022/11/13 11:56:19;;;;;;;4.60;3.40;;;;;;;12.88;72.11;100883.16;1739906;82;21169;-77
2022/11/13 12:00:18;;;;;;;5.47;3.60;;;;;;;12.79;72.36;100885.08;1739954;81;21236;-78
2022/11/13 12:04:12;;;;;;;4.67;3.70;;;;;;;12.66;72.82;100879.31;1741353;81;21200;-77
2022/11/13 12:08:08;;;;;;;8.98;4.25;;;;;;;12.77;73.21;100870.69;1741098;82;21308;-77
2022/11/13 12:11:44;;;;;;;4.00;3.60;;;;;;;12.71;73.06;100869.51;1740245;81;21165;-78
2022/11/13 12:15:18;;;;;;;4.03;3.12;;;;;;;12.78;72.85;100866.38;1741623;81;21201;-78
2022/11/13 12:18:43;;;;;;;5.00;3.55;;;;;;;12.76;72.74;100872.58;1741429;81;21746;-77
2022/11/13 12:22:31;;;;;;;6.12;3.67;;;;;;;12.68;73.09;100869.00;1740493;82;21773;-76
2022/11/13 12:26:14;;;;;;;4.78;3.83;;;;;;;12.78;72.93;100868.27;1747342;82;21184;-78
2022/11/13 12:30:12;;;;;;;5.12;3.62;;;;;;;12.71;73.42;100864.55;1753382;80;21634;-76
2022/11/13 12:33:51;;;;;;;3.98;3.47;;;;;;;12.76;73.15;100862.12;1755070;80;21208;-77
2022/11/13 12:37:18;;;;;;;4.30;3.90;;;;;;;12.74;73.26;100860.91;1732409;81;21188;-78
2022/11/13 12:40:40;;;;;;;5.15;4.62;;;;;;;12.79;72.66;100850.77;1754763;80;21169;-78
2022/11/13 12:44:15;;;;;;;6.05;4.12;;;;;;;12.77;72.69;100851.47;1755084;80;21192;-78
2022/11/13 12:47:32;;;;;;;7.33;4.12;;;;;;;12.82;72.79;100846.30;1754833;82;21789;-78
2022/11/13 12:51:16;;;;;;;11.83;4.62;;;;;;;12.66;73.72;100851.87;1754740;82;21161;-77
2022/11/13 12:54:42;;;;;;;5.30;4.33;;;;;;;12.52;73.88;100851.56;1754691;80;21180;-77
2022/11/13 12:58:32;;;;;;;4.72;4.22;;;;;;;12.59;73.91;100857.70;1754765;82;21746;-77
2022/11/13 13:02:19;;;;;;;4.22;3.70;;;;;;;12.56;73.63;100857.53;1754197;82;21208;-76
2022/11/13 13:06:13;;;;;;;4.15;3.75;;;;;;;12.43;74.10;100853.98;1730069;81;21181;-78
2022/11/13 13:10:10;;;;;;;5.85;4.10;;;;;;;12.59;73.66;100857.70;1754634;80;21746;-76
2022/11/13 13:13:44;;;;;;;4.53;4.00;;;;;;;12.58;73.49;100843.66;1754715;80;21200;-78
2022/11/13 13:17:26;;;;;;;4.08;3.62;;;;;;;12.55;73.53;100850.34;1754840;82;21764;-78
2022/11/13 13:21:07;;;;;;;4.10;3.70;;;;;;;12.53;73.73;100842.29;1754735;82;21204;-77
2022/11/13 13:24:41;;;;;;;6.22;4.20;;;;;;;12.58;73.75;100846.40;1754608;80;21156;-77
2022/11/13 13:28:20;;;;;;;9.08;4.65;;;;;;;12.46;73.70;100854.98;1715710;83;21163;-77
2022/11/13 13:31:47;;;;;;;4.40;4.00;;;;;;;12.39;73.94;100855.88;1715406;83;21188;-77
2022/11/13 13:35:25;;;;;;;6.75;3.85;;;;;;;12.42;73.91;100857.77;1714681;83;21516;-78
2022/11/13 13:39:04;;;;;;;4.87;4.35;;;;;;;12.37;74.23;100857.41;1715523;83;21200;-78
2022/11/13 13:42:40;;;;;;;7.03;4.55;;;;;;;12.18;75.07;100858.64;1714848;83;21180;-77
2022/11/13 13:46:25;;;;;;;8.50;4.85;;;;;;;12.16;75.22;100855.23;1715615;83;21195;-78
2022/11/13 13:49:49;;;;;;;6.40;4.90;;;;;;;12.11;75.37;100851.30;1714808;83;21168;-76
2022/11/13 13:53:12;;;;;;;6.75;4.83;;;;;;;12.00;75.57;100857.48;1714478;83;21168;-77
2022/11/13 13:56:36;;;;;;;6.08;5.20;;;;;;;11.82;76.20;100851.80;1697155;83;21196;-78
2022/11/13 14:00:00;;;;;;;4.70;4.22;;;;;;;11.76;76.42;100854.69;1714751;83;21175;-77
2022/11/13 14:03:21;;;;;;;6.65;4.60;;;;;;;11.74;76.55;100861.72;1714360;83;21176;-78
2022/11/13 14:06:32;;;;;;;6.10;5.37;;;;;;;11.83;76.32;100859.88;1715717;83;21156;-78
2022/11/13 14:09:35;;;;;;;6.20;5.60;;;;;;;11.83;75.90;100870.84;1715656;83;21208;-78
2022/11/13 14:12:59;;;;;;;5.65;5.15;;;;;;;11.55;76.73;100868.05;1715733;83;21152;-78
2022/11/13 14:16:22;;;;;;;6.92;5.75;;;;;;;11.63;76.55;100866.17;1715705;83;21196;-78
2022/11/13 14:19:46;;;;;;;7.17;6.33;;;;;;;11.46;76.77;100859.80;1714877;83;21204;-78
2022/11/13 14:23:11;;;;;;;12.40;9.50;;;;;;;11.42;77.11;100875.38;1714659;83;21180;-78
2022/11/13 14:26:34;;;;;;;11.43;7.70;;;;;;;11.49;76.90;100867.70;1721486;81;21221;-77
2022/11/13 14:30:00;;;;;;;6.47;5.78;;;;;;;11.19;77.66;100865.05;1753948;80;21208;-78
2022/11/13 14:33:26;;;;;;;7.25;5.83;;;;;;;11.05;78.21;100860.20;1754035;80;21164;-78
2022/11/13 14:36:52;;;;;;;7.33;6.37;;;;;;;11.24;77.65;100852.22;1753492;82;21208;-77
2022/11/13 14:40:36;;;;;;;7.28;6.58;;;;;;;11.25;77.48;100856.18;1753976;80;21224;-78
2022/11/13 14:44:00;;;;;;;7.97;7.17;;;;;;;11.22;77.16;100857.02;1753828;80;21184;-86
2022/11/13 14:47:36;;;;;;;7.78;6.05;;;;;;;11.08;77.52;100865.36;1754977;82;21203;-77
2022/11/13 14:51:07;;;;;;;8.15;7.10;;;;;;;11.04;77.64;100870.82;1755175;82;21149;-86
2022/11/13 14:54:42;;;;;;;8.83;7.92;;;;;;;11.02;77.65;100865.19;1754443;80;21196;-84
2022/11/13 14:58:06;;;;;;;9.00;7.92;;;;;;;10.78;78.63;100859.95;1754612;82;21211;-78
2022/11/13 15:01:32;;;;;;;9.75;7.55;;;;;;;10.42;80.42;100864.20;1755493;82;21741;-85
2022/11/13 15:04:56;;;;;;;8.30;7.40;;;;;;;10.55;80.37;100864.29;1754606;80;21192;-85
2022/11/13 15:08:13;;;;;;;10.05;8.08;;;;;;;10.69;79.84;100869.15;1755134;80;21165;-85
2022/11/13 15:11:39;;;;;;;10.58;8.05;;;;;;;10.56;80.27;100875.57;1754377;82;21192;-85
2022/11/13 15:15:03;;;;;;;11.95;8.70;;;;;;;10.59;80.21;100873.38;1754265;80;21235;-85
2022/11/13 15:18:27;;;;;;;12.33;9.20;;;;;;;10.64;79.98;100872.89;1755010;80;21164;-86
2022/11/13 15:21:54;;;;;;;9.98;8.93;;;;;;;10.61;79.91;100869.09;1755172;82;21186;-85
2022/11/13 15:25:26;;;;;;;9.75;8.43;;;;;;;10.60;79.71;100874.23;1754015;80;21236;-84
2022/11/13 15:28:51;;;;;;;10.75;8.88;;;;;;;10.53;79.37;100871.27;1744820;81;21181;-84
2022/11/13 15:32:12;;;;;;;10.65;9.55;;;;;;;10.51;79.57;100872.47;1741984;82;21209;-84
2022/11/13 15:35:24;;;;;;;10.32;9.33;;;;;;;10.43;79.52;100875.48;1740576;81;21221;-82
2022/11/13 15:38:27;;;;;;;9.90;8.78;;;;;;;10.29;79.92;100878.81;1740648;81;21759;-85
2022/11/13 15:41:37;;;;;;;;;;;;;;;10.28;80.12;100880.35;1743815;82;21762;-84
2022/11/13 15:45:01;;;;;;;12.80;11.05;;;;;;;10.31;80.33;100886.36;1740658;81;20200;-83
2022/11/13 15:48:18;;;;;;;14.13;10.55;;;;;;;10.24;80.46;100892.11;1741925;82;21686;-84
2022/11/13 15:51:42;;;;;;;12.10;10.58;;;;;;;10.03;81.24;100883.39;1742011;82;21169;-85